Time;durP1;ratioP1;P1;durP2;ratioP2;P2;SDS_P1;SDS_P2;PMS_P1;PMS_P2;Temp;Humidity;BMP_temperature;BMP_pressure;BME280_temperature;BME280_humidity;BME280_pressure;Samples;Min_cycle;Max_cycle;Signal;HPM_P1;HPM_P2
2023/01/10 00:01:55;;;;;;;3.73;3.50;;;;;;;3.92;100.00;96382.72;4973913;28;20193;-74
2023/01/10 00:04:21;;;;;;;4.00;3.80;;;;;;;3.86;100.00;96385.28;4972729;28;20300;-74
2023/01/10 00:06:46;;;;;;;4.57;4.17;;;;;;;3.84;100.00;96385.50;4973460;28;20208;-74
2023/01/10 00:09:11;;;;;;;4.33;4.13;;;;;;;3.87;100.00;96390.28;4973435;28;20255;-74
2023/01/10 00:14:21;;;;;;;4.30;4.10;;;;;;;3.98;100.00;96394.91;4958926;28;20203;-74
2023/01/10 00:16:46;;;;;;;3.97;3.77;;;;;;;4.01;100.00;96401.50;4972615;28;20204;-74
2023/01/10 00:19:11;;;;;;;4.43;4.20;;;;;;;4.00;100.00;96411.09;4973543;28;20200;-74
2023/01/10 00:21:38;;;;;;;4.23;3.97;;;;;;;4.04;100.00;96406.28;4973654;28;20176;-74
2023/01/10 00:24:20;;;;;;;3.70;3.40;;;;;;;4.05;100.00;96408.72;4973375;28;20184;-74
2023/01/10 00:26:50;;;;;;;3.30;3.20;;;;;;;4.10;100.00;96410.72;4973302;28;20179;-75
2023/01/10 00:29:20;;;;;;;4.07;3.87;;;;;;;4.10;100.00;96414.09;4973377;28;20674;-74
2023/01/10 00:31:46;;;;;;;4.00;3.80;;;;;;;4.07;100.00;96419.66;4973471;28;20685;-74
2023/01/10 00:34:12;;;;;;;3.83;3.67;;;;;;;4.16;100.00;96422.91;4972836;28;20282;-75
2023/01/10 00:36:37;;;;;;;3.83;3.67;;;;;;;4.13;100.00;96431.84;4973615;28;20220;-75
2023/01/10 00:39:03;;;;;;;3.80;3.60;;;;;;;4.09;100.00;96432.44;4973396;28;20193;-75
2023/01/10 00:44:12;;;;;;;4.13;3.93;;;;;;;3.99;100.00;96440.59;4973532;28;20195;-74
2023/01/10 00:46:38;;;;;;;4.00;3.80;;;;;;;3.95;100.00;96454.13;4955556;28;20184;-75
2023/01/10 00:49:10;;;;;;;3.70;3.60;;;;;;;4.04;100.00;96455.56;4973373;28;20187;-74
2023/01/10 00:51:36;;;;;;;3.60;3.50;;;;;;;4.00;100.00;96457.75;4973275;28;20184;-75
2023/01/10 00:54:01;;;;;;;5.03;4.13;;;;;;;3.95;100.00;96460.13;4955274;28;20295;-75
2023/01/10 00:56:27;;;;;;;3.77;3.57;;;;;;;3.99;100.00;96457.94;4972580;28;20227;-75
2023/01/10 00:58:52;;;;;;;4.03;3.73;;;;;;;4.03;100.00;96459.13;4971117;28;20181;-75
2023/01/10 01:01:17;;;;;;;3.80;3.50;;;;;;;3.99;100.00;96465.72;4973046;28;20271;-74
2023/01/10 01:03:43;;;;;;;3.47;3.27;;;;;;;4.04;100.00;96465.94;4955038;28;20540;-75
2023/01/10 01:06:08;;;;;;;3.67;3.53;;;;;;;4.03;100.00;96472.91;4973123;28;20677;-75
2023/01/10 01:08:33;;;;;;;3.90;3.70;;;;;;;3.86;100.00;96479.41;4973183;28;20700;-75
2023/01/10 01:10:59;;;;;;;3.63;3.43;;;;;;;3.90;100.00;96483.22;4972722;28;20251;-75
2023/01/10 01:13:25;;;;;;;3.70;3.50;;;;;;;4.00;100.00;96473.31;4973011;28;20196;-75
2023/01/10 01:15:50;;;;;;;4.13;3.93;;;;;;;3.87;100.00;96493.16;4975469;28;20282;-75
2023/01/10 01:18:19;;;;;;;3.97;3.80;;;;;;;4.00;100.00;96488.88;4959912;28;20192;-74
2023/01/10 01:20:46;;;;;;;4.47;3.63;;;;;;;3.86;100.00;96496.75;4959512;28;20215;-75
2023/01/10 01:23:12;;;;;;;5.47;4.20;;;;;;;3.92;100.00;96507.16;4976577;28;20263;-75
2023/01/10 01:25:38;;;;;;;4.43;4.23;;;;;;;3.92;100.00;96509.75;4959266;28;20228;-75
2023/01/10 01:28:03;;;;;;;4.57;4.30;;;;;;;3.86;100.00;96517.50;4976773;28;20204;-75
2023/01/10 01:30:29;;;;;;;4.17;3.97;;;;;;;3.90;100.00;96514.31;4976886;28;20188;-75
2023/01/10 01:32:54;;;;;;;4.20;3.90;;;;;;;3.92;100.00;96511.53;4959263;28;20219;-75
2023/01/10 01:35:20;;;;;;;4.37;4.07;;;;;;;3.92;100.00;96516.72;4976764;28;20694;-75
2023/01/10 01:37:45;;;;;;;4.50;4.30;;;;;;;3.83;100.00;96517.88;4976446;28;20193;-75
2023/01/10 01:40:15;;;;;;;4.30;4.00;;;;;;;3.86;100.00;96515.69;4976640;28;20628;-75
2023/01/10 01:42:42;;;;;;;4.60;4.40;;;;;;;3.80;100.00;96529.41;4976392;28;20244;-74
2023/01/10 01:45:07;;;;;;;5.00;4.60;;;;;;;3.73;100.00;96531.19;4976318;28;20199;-75
2023/01/10 01:47:42;;;;;;;4.93;4.63;;;;;;;3.87;100.00;96532.84;4975839;28;20177;-75
2023/01/10 01:50:18;;;;;;;3.60;3.50;;;;;;;3.85;100.00;96544.41;4976337;28;20574;-75
2023/01/10 01:52:44;;;;;;;4.27;4.07;;;;;;;3.85;100.00;96562.53;4974849;28;20295;-75
2023/01/10 01:55:10;;;;;;;5.67;5.37;;;;;;;3.86;100.00;96561.56;4972922;28;20700;-75
2023/01/10 01:57:36;;;;;;;4.47;4.27;;;;;;;3.81;100.00;96556.13;4956910;29;20198;-75
2023/01/10 02:00:04;;;;;;;3.77;3.67;;;;;;;3.82;100.00;96566.31;4956937;29;20197;-74
2023/01/10 02:02:34;;;;;;;3.90;3.70;;;;;;;3.86;100.00;96569.34;4956485;29;20193;-74
2023/01/10 02:05:04;;;;;;;3.20;3.10;;;;;;;3.91;100.00;96574.75;4956124;29;20276;-75
2023/01/10 02:07:36;;;;;;;3.37;3.27;;;;;;;3.87;100.00;96578.72;4957271;29;20181;-74
2023/01/10 02:10:11;;;;;;;3.50;3.30;;;;;;;3.86;100.00;96593.47;4956873;29;20181;-75
2023/01/10 02:12:38;;;;;;;3.30;3.20;;;;;;;3.77;100.00;96586.84;4956225;29;20192;-75
2023/01/10 02:15:04;;;;;;;3.47;3.27;;;;;;;3.76;100.00;96605.97;4955517;29;20216;-75
2023/01/10 02:17:29;;;;;;;3.20;3.00;;;;;;;3.77;100.00;96604.97;4955904;28;20717;-75
2023/01/10 02:20:11;;;;;;;3.10;3.00;;;;;;;3.70;100.00;96617.06;4956386;29;20238;-75
2023/01/10 02:23:06;;;;;;;3.40;3.20;;;;;;;3.78;100.00;96616.16;4955961;29;20279;-74
2023/01/10 02:25:51;;;;;;;4.43;4.23;;;;;;;3.72;100.00;96630.66;4941039;29;20181;-75
2023/01/10 02:28:32;;;;;;;3.80;3.70;;;;;;;3.61;100.00;96631.97;4955887;29;20253;-74
2023/01/10 02:31:09;;;;;;;3.70;3.60;;;;;;;3.54;100.00;96649.25;4956641;29;20174;-74
2023/01/10 02:33:56;;;;;;;4.00;3.90;;;;;;;3.52;100.00;96650.41;4941300;29;20291;-74
2023/01/10 02:36:37;;;;;;;5.33;5.07;;;;;;;3.40;100.00;96647.50;4955770;29;20189;-74
2023/01/10 02:39:31;;;;;;;5.23;4.93;;;;;;;3.33;100.00;96655.22;4956612;29;20187;-74
2023/01/10 02:42:17;;;;;;;6.70;3.70;;;;;;;3.40;100.00;96659.66;4955482;29;20192;-75
2023/01/10 02:45:08;;;;;;;5.93;5.63;;;;;;;3.34;100.00;96668.97;4954473;29;20218;-75
2023/01/10 02:47:38;;;;;;;4.27;3.97;;;;;;;3.39;100.00;96666.63;4956253;29;20193;-75
2023/01/10 02:50:25;;;;;;;4.30;4.00;;;;;;;3.39;100.00;96678.78;4955928;29;20216;-75
2023/01/10 02:52:51;;;;;;;3.87;3.67;;;;;;;3.32;100.00;96673.53;4954831;29;20220;-76
2023/01/10 02:55:17;;;;;;;4.20;3.90;;;;;;;3.42;100.00;96679.22;4955614;28;20288;-75
2023/01/10 02:57:57;;;;;;;4.17;3.97;;;;;;;3.33;100.00;96675.94;4955867;29;20177;-75
2023/01/10 03:00:28;;;;;;;4.13;3.93;;;;;;;3.39;100.00;96687.38;4955516;29;20683;-75
2023/01/10 03:03:10;;;;;;;5.23;4.77;;;;;;;3.34;100.00;96687.88;4955178;29;20177;-76
2023/01/10 03:05:54;;;;;;;4.37;4.00;;;;;;;3.28;100.00;96688.66;4955141;29;20197;-75
2023/01/10 03:08:33;;;;;;;5.73;5.23;;;;;;;3.25;100.00;96706.31;4955445;29;20185;-75
2023/01/10 03:11:01;;;;;;;4.53;4.23;;;;;;;3.28;100.00;96711.97;4955216;29;20187;-75
2023/01/10 03:13:40;;;;;;;4.80;4.37;;;;;;;3.30;100.00;96711.75;4945721;29;20233;-75
2023/01/10 03:16:09;;;;;;;5.03;4.53;;;;;;;3.31;100.00;96713.38;4955016;28;20226;-75
2023/01/10 03:18:59;;;;;;;5.77;4.67;;;;;;;3.25;100.00;96730.44;4954048;29;20217;-75
2023/01/10 03:21:28;;;;;;;5.80;5.40;;;;;;;3.22;100.00;96732.59;4938145;29;20701;-75
2023/01/10 03:23:59;;;;;;;5.27;4.77;;;;;;;3.25;100.00;96737.41;4955174;29;20245;-75
2023/01/10 03:26:52;;;;;;;5.43;5.10;;;;;;;3.27;100.00;96743.22;4954865;29;20182;-73
2023/01/10 03:29:24;;;;;;;6.20;5.17;;;;;;;3.25;100.00;96753.75;4943046;29;20201;-75
2023/01/10 03:31:56;;;;;;;6.00;5.40;;;;;;;3.22;100.00;96768.84;4954885;29;20194;-75
2023/01/10 03:34:23;;;;;;;5.97;5.37;;;;;;;3.17;100.00;96779.75;4954909;29;20201;-74
2023/01/10 03:36:53;;;;;;;5.03;4.57;;;;;;;3.22;100.00;96768.84;4937420;28;20212;-74
2023/01/10 03:39:24;;;;;;;6.60;5.97;;;;;;;3.20;100.00;96776.78;4954545;29;20640;-75
2023/01/10 03:41:59;;;;;;;7.83;5.20;;;;;;;3.31;100.00;96783.28;4954975;29;20668;-75
2023/01/10 03:44:46;;;;;;;6.57;4.83;;;;;;;3.30;100.00;96774.72;4954814;29;20216;-75
2023/01/10 03:47:40;;;;;;;8.90;5.27;;;;;;;3.25;100.00;96777.06;4954873;29;20188;-74
2023/01/10 03:50:10;;;;;;;8.43;5.63;;;;;;;3.31;100.00;96788.47;4951715;29;20712;-75
2023/01/10 03:52:39;;;;;;;5.97;5.00;;;;;;;3.27;100.00;96792.41;4954509;29;20217;-75
2023/01/10 03:55:06;;;;;;;7.97;5.50;;;;;;;3.28;100.00;96788.84;4954561;28;20288;-75
2023/01/10 03:57:31;;;;;;;7.27;5.37;;;;;;;3.29;100.00;96795.59;4954233;29;20183;-74
2023/01/10 03:59:57;;;;;;;8.20;5.37;;;;;;;3.30;100.00;96799.81;4954701;29;20185;-75
2023/01/10 04:02:28;;;;;;;11.40;5.30;;;;;;;3.30;100.00;96808.38;4954241;29;20216;-75
2023/01/10 04:04:53;;;;;;;9.43;5.40;;;;;;;3.32;100.00;96816.00;4954177;29;20248;-75
2023/01/10 04:07:19;;;;;;;6.13;5.43;;;;;;;3.35;100.00;96821.59;4937037;29;20182;-75
2023/01/10 04:09:44;;;;;;;9.70;5.20;;;;;;;3.22;100.00;96821.44;4937719;29;20660;-75
2023/01/10 04:12:09;;;;;;;5.63;5.07;;;;;;;3.14;100.00;96825.91;4953536;29;20182;-74
2023/01/10 04:14:35;;;;;;;6.87;5.07;;;;;;;3.08;100.00;96826.63;4937166;29;20308;-75
2023/01/10 04:17:00;;;;;;;5.97;5.00;;;;;;;3.07;100.00;96830.19;4936463;28;20293;-75
2023/01/10 04:19:26;;;;;;;5.80;5.03;;;;;;;3.07;100.00;96837.94;4952704;29;20582;-74
2023/01/10 04:21:51;;;;;;;6.67;4.67;;;;;;;3.01;100.00;96844.63;4937265;29;20246;-75
2023/01/10 04:24:17;;;;;;;6.83;6.33;;;;;;;3.00;100.00;96853.41;4954191;29;20591;-75
2023/01/10 04:26:42;;;;;;;5.40;4.90;;;;;;;3.00;100.00;96858.59;4937018;29;20224;-75
2023/01/10 04:29:08;;;;;;;5.70;5.20;;;;;;;3.01;100.00;96861.97;4953909;29;20508;-75
2023/01/10 04:31:33;;;;;;;8.10;6.17;;;;;;;3.02;100.00;96869.53;4953814;29;20886;-72
2023/01/10 04:33:59;;;;;;;5.43;4.93;;;;;;;2.98;100.00;96867.50;4953967;29;20232;-75
2023/01/10 04:36:24;;;;;;;5.73;5.13;;;;;;;3.06;100.00;96872.59;4954132;29;20210;-75
2023/01/10 04:38:50;;;;;;;6.17;5.37;;;;;;;3.06;100.00;96870.03;4953840;29;20604;-74
2023/01/10 04:41:15;;;;;;;5.87;4.97;;;;;;;3.06;100.00;96877.78;4953560;29;20185;-75
2023/01/10 04:43:41;;;;;;;7.00;5.20;;;;;;;3.03;100.00;96885.88;4953842;29;20620;-75
2023/01/10 04:46:06;;;;;;;9.63;5.27;;;;;;;2.96;100.00;96890.16;4953751;29;20194;-75
2023/01/10 04:48:32;;;;;;;7.60;5.90;;;;;;;2.95;100.00;96886.78;4952658;28;20225;-74
2023/01/10 04:50:57;;;;;;;5.30;4.80;;;;;;;2.89;100.00;96892.66;4956645;29;20268;-72
2023/01/10 04:53:23;;;;;;;9.70;5.30;;;;;;;2.88;100.00;96899.63;4957336;29;20785;-72
2023/01/10 04:55:48;;;;;;;8.43;5.47;;;;;;;2.92;100.00;96907.84;4965804;28;20759;-75
2023/01/10 04:58:14;;;;;;;8.97;5.50;;;;;;;2.86;100.00;96909.34;4977059;28;20298;-75
2023/01/10 05:00:39;;;;;;;5.63;5.13;;;;;;;2.85;100.00;96912.91;4976876;28;20562;-75
2023/01/10 05:03:05;;;;;;;11.27;4.90;;;;;;;2.81;100.00;96923.78;4976856;28;20192;-75
2023/01/10 05:05:30;;;;;;;8.93;5.27;;;;;;;2.78;100.00;96924.16;4958460;28;20200;-75
2023/01/10 05:07:56;;;;;;;12.13;5.00;;;;;;;2.70;100.00;96917.25;4976477;28;20236;-74
2023/01/10 05:10:22;;;;;;;10.97;5.00;;;;;;;2.71;100.00;96920.63;4977079;28;20192;-74
2023/01/10 05:12:47;;;;;;;12.53;4.97;;;;;;;2.70;100.00;96929.38;4959718;28;20193;-74
2023/01/10 05:15:13;;;;;;;5.03;4.63;;;;;;;2.71;100.00;96934.38;4975835;28;20212;-73
2023/01/10 05:17:39;;;;;;;8.30;4.70;;;;;;;2.73;100.00;96941.97;4976396;28;20230;-73
2023/01/10 05:20:04;;;;;;;11.67;5.00;;;;;;;2.72;100.00;96938.59;4976337;28;20200;-74
2023/01/10 05:22:30;;;;;;;6.60;5.07;;;;;;;2.74;100.00;96953.91;4976519;28;20242;-73
2023/01/10 05:24:55;;;;;;;10.43;5.40;;;;;;;2.80;100.00;96953.22;4976763;28;20569;-74
2023/01/10 05:27:20;;;;;;;6.40;5.87;;;;;;;2.78;100.00;96961.19;4976423;28;20184;-74
2023/01/10 05:29:46;;;;;;;11.33;4.97;;;;;;;2.83;100.00;96955.47;4975843;28;20189;-74
2023/01/10 05:32:11;;;;;;;8.57;4.70;;;;;;;2.91;100.00;96950.22;4976387;28;20181;-74
2023/01/10 05:34:36;;;;;;;10.07;5.53;;;;;;;2.88;100.00;96960.94;4958837;28;20220;-73
2023/01/10 05:37:02;;;;;;;9.87;5.33;;;;;;;2.90;100.00;96959.78;4976082;28;20196;-74
2023/01/10 05:39:27;;;;;;;11.07;5.47;;;;;;;2.93;100.00;96964.63;4976214;28;20232;-74
2023/01/10 05:41:53;;;;;;;9.47;5.57;;;;;;;2.95;100.00;96969.63;4976151;28;20192;-73
2023/01/10 05:44:18;;;;;;;10.33;4.83;;;;;;;2.95;100.00;96977.38;4976119;28;20181;-73
2023/01/10 05:46:43;;;;;;;5.70;4.30;;;;;;;2.99;100.00;96970.88;4958652;28;20203;-74
2023/01/10 05:49:09;;;;;;;13.43;5.50;;;;;;;3.04;100.00;96976.34;4975933;28;20259;-73
2023/01/10 05:51:34;;;;;;;10.27;5.93;;;;;;;3.08;100.00;96984.53;4975314;28;20275;-74
2023/01/10 05:54:00;;;;;;;11.80;5.83;;;;;;;3.10;100.00;96995.53;4976204;28;20201;-73
2023/01/10 05:56:25;;;;;;;8.90;5.13;;;;;;;3.11;100.00;96994.56;4974588;28;20228;-74
2023/01/10 05:58:51;;;;;;;10.97;4.73;;;;;;;3.12;100.00;96999.56;4975905;28;20227;-74
2023/01/10 06:01:16;;;;;;;7.83;4.43;;;;;;;3.17;100.00;97006.81;4957529;28;20635;-74
2023/01/10 06:03:42;;;;;;;11.77;5.40;;;;;;;3.20;100.00;97009.88;4975720;28;20219;-74
2023/01/10 06:06:08;;;;;;;11.20;6.10;;;;;;;3.25;100.00;97014.50;4975826;28;20201;-74
2023/01/10 06:08:35;;;;;;;6.80;5.13;;;;;;;3.30;100.00;97017.38;4957799;28;20301;-73
2023/01/10 06:11:01;;;;;;;6.17;4.63;;;;;;;3.26;100.00;97029.06;4975631;28;20193;-74
2023/01/10 06:13:26;;;;;;;9.40;4.53;;;;;;;3.24;100.00;97041.38;4974077;28;20264;-75
2023/01/10 06:15:52;;;;;;;7.37;4.43;;;;;;;3.27;100.00;97044.44;4974755;28;20184;-74
2023/01/10 06:18:17;;;;;;;6.13;3.93;;;;;;;3.26;100.00;97039.44;4975075;28;20181;-74
2023/01/10 06:20:43;;;;;;;7.57;4.33;;;;;;;3.34;100.00;97031.63;4975332;28;20184;-74
2023/01/10 06:23:08;;;;;;;6.27;4.03;;;;;;;3.42;100.00;97033.31;4974960;28;20593;-74
2023/01/10 06:25:39;;;;;;;6.70;3.83;;;;;;;3.37;100.00;97040.81;4975269;28;20188;-75
2023/01/10 06:28:05;;;;;;;7.93;5.10;;;;;;;3.37;100.00;97054.56;4975268;28;20177;-74
2023/01/10 06:30:30;;;;;;;9.60;5.00;;;;;;;3.41;100.00;97048.03;4975166;28;20200;-74
2023/01/10 06:33:01;;;;;;;8.07;6.73;;;;;;;3.42;100.00;97047.06;4974348;28;20181;-74
2023/01/10 06:35:26;;;;;;;19.50;18.00;;;;;;;3.40;100.00;97061.19;4974799;28;20220;-74
2023/01/10 06:37:52;;;;;;;13.10;5.07;;;;;;;3.38;100.00;97060.56;4973829;28;20187;-74
2023/01/10 06:40:17;;;;;;;13.37;6.23;;;;;;;3.45;100.00;97072.66;4974774;28;20590;-73
2023/01/10 06:42:43;;;;;;;6.70;6.03;;;;;;;3.46;100.00;97076.81;4974109;28;20185;-74
2023/01/10 06:45:09;;;;;;;9.40;7.07;;;;;;;3.42;100.00;97072.97;4957593;28;20181;-74
2023/01/10 06:47:35;;;;;;;8.37;6.90;;;;;;;3.42;100.00;97087.72;4974886;28;20655;-74
2023/01/10 06:50:00;;;;;;;7.00;5.80;;;;;;;3.45;100.00;97093.38;4974495;28;20196;-74
2023/01/10 06:52:25;;;;;;;9.43;5.60;;;;;;;3.40;100.00;97089.69;4974807;28;20184;-74
2023/01/10 06:54:52;;;;;;;5.90;4.80;;;;;;;3.47;100.00;97098.34;4974305;28;20295;-74
2023/01/10 06:57:17;;;;;;;12.27;4.77;;;;;;;3.49;100.00;97099.00;4955293;29;20174;-74
2023/01/10 06:59:43;;;;;;;10.07;5.70;;;;;;;3.51;100.00;97110.00;4954763;29;20648;-73
2023/01/10 07:02:10;;;;;;;12.53;5.70;;;;;;;3.54;100.00;97109.66;4954651;29;20189;-72
2023/01/10 07:04:35;;;;;;;5.40;4.93;;;;;;;3.67;100.00;97122.81;4937659;29;20207;-72
2023/01/10 07:07:01;;;;;;;9.53;4.10;;;;;;;3.62;100.00;97130.31;4954756;29;20189;-72
2023/01/10 07:09:27;;;;;;;9.67;4.73;;;;;;;3.57;100.00;97127.41;4954647;29;20197;-72
2023/01/10 07:11:52;;;;;;;10.83;4.27;;;;;;;3.59;100.00;97128.88;4954599;28;20194;-73
2023/01/10 07:14:18;;;;;;;5.13;4.57;;;;;;;3.63;100.00;97131.91;4936928;28;20212;-72
2023/01/10 07:16:43;;;;;;;26.17;24.37;;;;;;;4.25;100.00;97135.06;4954667;29;20590;-73
2023/01/10 07:19:08;;;;;;;7.20;6.60;;;;;;;4.17;100.00;97143.75;4953575;29;20208;-73
2023/01/10 07:21:33;;;;;;;7.37;4.80;;;;;;;3.88;100.00;97148.06;4953276;29;20280;-74
2023/01/10 07:23:59;;;;;;;7.27;5.30;;;;;;;3.83;100.00;97153.78;4943058;29;20215;-73
2023/01/10 07:26:24;;;;;;;10.73;4.97;;;;;;;3.84;100.00;97162.38;4955152;29;20241;-70
2023/01/10 07:28:50;;;;;;;14.33;11.87;;;;;;;3.81;100.00;97167.91;4955014;29;20182;-72
2023/01/10 07:31:18;;;;;;;9.60;5.73;;;;;;;3.73;100.00;97169.56;4954810;29;20185;-72
2023/01/10 07:33:43;;;;;;;10.43;5.23;;;;;;;3.72;100.00;97162.00;4954995;29;20197;-72
2023/01/10 07:36:09;;;;;;;10.20;5.50;;;;;;;3.62;100.00;97172.56;4955407;29;20260;-72
2023/01/10 07:38:34;;;;;;;7.60;4.90;;;;;;;3.66;100.00;97165.28;4954917;29;20182;-72
2023/01/10 07:41:03;;;;;;;9.43;5.93;;;;;;;3.70;100.00;97167.34;4955103;29;20188;-72
2023/01/10 07:43:29;;;;;;;8.63;4.67;;;;;;;3.72;100.00;97164.59;4954519;29;20272;-72
2023/01/10 07:46:02;;;;;;;5.30;4.20;;;;;;;3.78;100.00;97169.06;4954816;29;20196;-73
2023/01/10 07:48:28;;;;;;;8.97;4.27;;;;;;;3.83;100.00;97182.31;4954572;29;20162;-72
2023/01/10 07:50:56;;;;;;;6.13;4.63;;;;;;;3.86;100.00;97191.50;4954104;29;20240;-72
2023/01/10 07:53:21;;;;;;;9.37;5.57;;;;;;;3.91;100.00;97199.56;4954831;29;20620;-72
2023/01/10 07:55:47;;;;;;;5.70;5.17;;;;;;;3.93;100.00;97211.41;4954693;28;20313;-72
2023/01/10 07:58:13;;;;;;;7.00;4.43;;;;;;;3.96;100.00;97221.41;4954682;29;20213;-72
2023/01/10 08:00:39;;;;;;;7.83;4.83;;;;;;;3.97;100.00;97209.25;4954860;29;20281;-72
2023/01/10 08:03:05;;;;;;;6.20;5.60;;;;;;;3.93;100.00;97219.16;4954439;29;20192;-72
2023/01/10 08:05:31;;;;;;;7.33;5.87;;;;;;;3.96;100.00;97218.81;4954037;29;20190;-72
2023/01/10 08:07:58;;;;;;;6.57;5.73;;;;;;;4.03;100.00;97234.50;4937448;29;20509;-72
2023/01/10 08:10:25;;;;;;;14.13;7.03;;;;;;;4.04;100.00;97234.31;4955055;29;20181;-72
2023/01/10 08:12:50;;;;;;;8.47;6.37;;;;;;;4.14;100.00;97229.69;4954755;29;20185;-72
2023/01/10 08:15:15;;;;;;;7.20;6.50;;;;;;;4.11;100.00;97235.25;4936258;29;20205;-73
2023/01/10 08:17:41;;;;;;;6.00;5.17;;;;;;;4.13;100.00;97240.22;4954501;29;20212;-72
2023/01/10 08:20:07;;;;;;;12.20;5.20;;;;;;;4.13;100.00;97235.03;4954503;29;20186;-72
2023/01/10 08:22:32;;;;;;;7.07;5.03;;;;;;;4.05;100.00;97235.94;4954867;29;20182;-72
2023/01/10 08:24:57;;;;;;;6.87;4.63;;;;;;;4.08;100.00;97240.75;4953998;28;20189;-72
2023/01/10 08:27:23;;;;;;;6.40;4.97;;;;;;;4.18;100.00;97243.09;4954443;29;20190;-72
2023/01/10 08:29:48;;;;;;;5.17;4.63;;;;;;;4.23;100.00;97256.38;4953529;29;20248;-72
2023/01/10 08:32:13;;;;;;;6.00;4.77;;;;;;;4.21;100.00;97247.16;4953890;29;20181;-72
2023/01/10 08:34:39;;;;;;;7.37;5.10;;;;;;;4.21;100.00;97254.94;4954208;29;20304;-72
2023/01/10 08:37:04;;;;;;;8.00;4.67;;;;;;;4.18;100.00;97261.25;4937582;29;20232;-72
2023/01/10 08:39:30;;;;;;;8.00;5.30;;;;;;;4.22;100.00;97264.34;4954267;29;20696;-72
2023/01/10 08:41:56;;;;;;;7.17;5.33;;;;;;;4.08;100.00;97271.06;4954448;29;20189;-72
2023/01/10 08:44:21;;;;;;;11.33;5.80;;;;;;;4.29;100.00;97258.25;4936759;29;20208;-72
2023/01/10 08:46:47;;;;;;;7.27;6.23;;;;;;;4.40;100.00;97260.44;4954041;29;20265;-72
2023/01/10 08:49:13;;;;;;;11.07;7.13;;;;;;;4.33;100.00;97269.91;4953674;29;20264;-72
2023/01/10 08:51:38;;;;;;;6.57;5.97;;;;;;;4.25;100.00;97269.97;4954185;29;20272;-72
2023/01/10 08:54:04;;;;;;;8.07;6.40;;;;;;;4.30;100.00;97261.66;4952774;29;20732;-72
2023/01/10 08:56:29;;;;;;;8.60;6.17;;;;;;;4.46;100.00;97266.69;4953664;28;20224;-72
2023/01/10 08:58:55;;;;;;;12.40;6.43;;;;;;;4.53;100.00;97267.63;4953798;29;20190;-73
2023/01/10 09:01:20;;;;;;;7.03;6.33;;;;;;;4.53;100.00;97276.22;4953764;29;20181;-72
2023/01/10 09:03:47;;;;;;;10.27;6.77;;;;;;;4.37;100.00;97278.97;4936750;29;20622;-73
2023/01/10 09:06:12;;;;;;;12.50;6.63;;;;;;;4.36;100.00;97292.09;4953524;29;20177;-73
2023/01/10 09:08:38;;;;;;;7.50;6.80;;;;;;;4.47;100.00;97287.31;4954134;29;20674;-72
2023/01/10 09:11:05;;;;;;;8.10;6.53;;;;;;;4.46;100.00;97297.84;4954053;29;20543;-73
2023/01/10 09:13:31;;;;;;;10.63;6.47;;;;;;;4.51;100.00;97295.56;4954101;29;20173;-72
2023/01/10 09:15:57;;;;;;;6.97;6.27;;;;;;;4.36;100.00;97307.66;4953474;29;20665;-72
2023/01/10 09:18:23;;;;;;;11.03;6.27;;;;;;;4.57;100.00;97310.41;4953681;29;20185;-73
2023/01/10 09:20:49;;;;;;;8.13;6.60;;;;;;;4.36;100.00;97307.66;4953808;29;20189;-72
2023/01/10 09:23:18;;;;;;;10.70;8.67;;;;;;;4.52;100.00;97307.53;4953596;29;20551;-72
2023/01/10 09:25:52;;;;;;;5.87;5.00;;;;;;;4.43;100.00;97309.41;4953797;29;20603;-72
2023/01/10 09:28:18;;;;;;;13.63;5.10;;;;;;;4.42;100.00;97317.34;4953819;29;20177;-72
2023/01/10 09:30:44;;;;;;;8.40;7.53;;;;;;;4.54;100.00;97315.97;4953366;29;20223;-72
2023/01/10 09:33:10;;;;;;;11.57;5.87;;;;;;;4.41;100.00;97320.91;4936447;29;20609;-72
2023/01/10 09:35:37;;;;;;;9.40;5.20;;;;;;;4.49;100.00;97321.69;4954504;28;20224;-72
2023/01/10 09:38:04;;;;;;;4.57;3.70;;;;;;;4.48;100.00;97327.03;4956966;29;20232;-72
2023/01/10 09:40:52;;;;;;;6.40;4.20;;;;;;;4.43;100.00;97337.13;4957160;29;20543;-72
2023/01/10 09:43:44;;;;;;;6.20;4.83;;;;;;;4.54;100.00;97334.94;4957070;29;20186;-72
2023/01/10 09:46:34;;;;;;;10.53;9.07;;;;;;;4.52;100.00;97342.09;4956929;29;20288;-72
2023/01/10 09:49:11;;;;;;;17.67;16.13;;;;;;;4.65;100.00;97343.28;4956780;29;20192;-72
2023/01/10 09:51:38;;;;;;;11.00;9.90;;;;;;;4.38;100.00;97352.44;4957282;29;20165;-72
2023/01/10 09:54:18;;;;;;;10.80;5.40;;;;;;;4.56;100.00;97355.53;4956966;29;20213;-72
2023/01/10 09:56:46;;;;;;;6.57;4.50;;;;;;;4.65;100.00;97359.66;4937860;29;20249;-72
2023/01/10 09:59:19;;;;;;;8.00;4.70;;;;;;;4.66;100.00;97358.69;4937599;29;20682;-71
2023/01/10 10:01:46;;;;;;;10.70;4.90;;;;;;;4.60;100.00;97351.59;4937835;29;20314;-71
2023/01/10 10:04:19;;;;;;;11.27;5.63;;;;;;;4.61;100.00;97361.00;4937040;29;20190;-74
2023/01/10 10:06:48;;;;;;;10.60;4.20;;;;;;;4.75;100.00;97360.22;4937313;29;20186;-71
2023/01/10 10:09:17;;;;;;;7.77;6.37;;;;;;;4.55;100.00;97364.31;4937604;29;20193;-71
2023/01/10 10:11:48;;;;;;;5.97;4.43;;;;;;;4.64;100.00;97365.84;4920593;29;20285;-71
2023/01/10 10:14:26;;;;;;;5.73;4.90;;;;;;;4.60;100.00;97359.38;4925912;29;20562;-71
2023/01/10 10:17:14;;;;;;;5.17;4.70;;;;;;;4.80;100.00;97352.72;4956431;29;20200;-72
2023/01/10 10:20:13;;;;;;;4.47;3.63;;;;;;;5.03;100.00;97355.25;4939452;29;20182;-71
2023/01/10 10:23:03;;;;;;;5.57;4.37;;;;;;;4.89;100.00;97354.28;4956352;29;20246;-71
2023/01/10 10:25:56;;;;;;;6.33;4.13;;;;;;;5.13;100.00;97349.78;4956723;29;20268;-71
2023/01/10 10:28:42;;;;;;;6.77;5.60;;;;;;;5.23;100.00;97342.56;4956635;29;20697;-71
2023/01/10 10:31:26;;;;;;;7.57;6.40;;;;;;;5.39;100.00;97342.38;4955898;29;20181;-73
2023/01/10 10:34:12;;;;;;;8.60;7.80;;;;;;;5.39;100.00;97347.59;4936896;29;20266;-72
2023/01/10 10:36:48;;;;;;;7.97;4.90;;;;;;;5.29;100.00;97342.66;4946836;29;20551;-72
2023/01/10 10:39:21;;;;;;;6.47;5.50;;;;;;;5.03;100.00;97344.88;4956391;29;20177;-72
2023/01/10 10:41:51;;;;;;;5.80;5.13;;;;;;;5.17;100.00;97346.69;4955888;29;20209;-72
2023/01/10 10:44:31;;;;;;;5.17;4.13;;;;;;;5.29;100.00;97350.47;4955919;29;20283;-72
2023/01/10 10:46:58;;;;;;;6.23;4.00;;;;;;;5.34;100.00;97350.72;4955047;28;20185;-73
2023/01/10 10:49:41;;;;;;;8.23;4.60;;;;;;;5.39;100.00;97351.00;4955818;29;20193;-72
2023/01/10 10:52:16;;;;;;;7.60;4.57;;;;;;;5.42;100.00;97350.63;4956202;29;20517;-73
2023/01/10 10:54:41;;;;;;;5.63;3.90;;;;;;;5.05;100.00;97350.72;4938758;29;20208;-73
2023/01/10 10:57:10;;;;;;;5.50;4.00;;;;;;;5.22;100.00;97335.75;4956051;28;20253;-73
2023/01/10 10:59:40;;;;;;;4.57;3.73;;;;;;;5.32;100.00;97344.09;4956051;29;20185;-73
2023/01/10 11:02:21;;;;;;;5.70;4.50;;;;;;;5.46;100.00;97338.09;4955809;29;20177;-71
2023/01/10 11:04:49;;;;;;;6.77;4.80;;;;;;;5.16;100.00;97345.06;4955050;29;20193;-71
2023/01/10 11:07:16;;;;;;;9.47;8.47;;;;;;;5.41;100.00;97340.41;4937843;29;20190;-71
2023/01/10 11:09:59;;;;;;;8.77;6.00;;;;;;;5.49;100.00;97344.69;4955652;29;20188;-70
2023/01/10 11:12:31;;;;;;;6.50;5.70;;;;;;;5.48;100.00;97354.28;4955590;29;20186;-71
2023/01/10 11:14:58;;;;;;;9.07;7.97;;;;;;;5.33;100.00;97353.50;4954460;28;20205;-71
2023/01/10 11:17:31;;;;;;;8.00;6.20;;;;;;;5.30;100.00;97366.84;4955412;29;20241;-71
2023/01/10 11:20:03;;;;;;;6.23;4.80;;;;;;;5.47;100.00;97359.66;4955452;29;20529;-70
2023/01/10 11:22:37;;;;;;;10.13;7.37;;;;;;;5.48;100.00;97361.28;4955458;29;20200;-73
2023/01/10 11:25:03;;;;;;;11.93;11.03;;;;;;;5.46;100.00;97364.09;4955171;29;20629;-70
2023/01/10 11:27:31;;;;;;;8.57;7.70;;;;;;;5.38;100.00;97364.16;4955177;29;20182;-71
2023/01/10 11:29:59;;;;;;;24.90;22.97;;;;;;;5.48;100.00;97361.28;4954647;29;20196;-71
2023/01/10 11:32:39;;;;;;;5.43;4.97;;;;;;;5.35;100.00;97361.94;4954993;29;20197;-70
2023/01/10 11:35:16;;;;;;;6.30;4.70;;;;;;;5.34;100.00;97360.31;4955330;29;20682;-71
2023/01/10 11:37:41;;;;;;;5.90;3.63;;;;;;;5.29;100.00;97349.66;4937901;29;20197;-71
2023/01/10 11:40:19;;;;;;;5.60;4.97;;;;;;;5.28;100.00;97348.03;4954771;29;20475;-73
2023/01/10 11:42:46;;;;;;;42.33;39.63;;;;;;;5.59;100.00;97353.03;4954981;29;20260;-71
2023/01/10 11:45:17;;;;;;;5.63;4.97;;;;;;;5.58;100.00;97354.81;4954822;29;20181;-71
2023/01/10 11:47:47;;;;;;;4.20;3.67;;;;;;;5.66;100.00;97346.94;4936976;29;20196;-71